createdAt,value
2022-07-29T00:01:54.807Z,1.00
2022-07-29T00:04:21.943Z,1.00
2022-07-29T00:06:48.912Z,1.00
2022-07-29T00:09:15.613Z,1.00
2022-07-29T00:11:42.699Z,1.00
2022-07-29T00:14:09.433Z,1.00
2022-07-29T00:16:36.344Z,1.00
2022-07-29T00:19:03.263Z,1.00
2022-07-29T00:21:30.063Z,1.00
2022-07-29T00:23:56.831Z,1.00
2022-07-29T00:26:24.289Z,1.00
2022-07-29T00:28:51.026Z,1.00
2022-07-29T00:31:17.731Z,1.00
2022-07-29T00:33:44.533Z,1.00
2022-07-29T00:36:11.241Z,1.00
2022-07-29T00:38:37.911Z,1.00
2022-07-29T00:41:04.771Z,1.00
2022-07-29T00:43:31.440Z,1.00
2022-07-29T00:45:58.150Z,1.00
2022-07-29T00:48:24.821Z,1.00
2022-07-29T00:50:51.751Z,1.00
2022-07-29T00:53:18.780Z,5.50
2022-07-29T00:55:45.470Z,10.10
2022-07-29T00:58:13.033Z,15.30
2022-07-29T01:00:41.680Z,16.20
2022-07-29T01:03:08.983Z,16.40
2022-07-29T01:05:50.395Z,19.50
2022-07-29T01:08:19.747Z,23.90
2022-07-29T01:10:46.676Z,31.10
2022-07-29T01:13:14.286Z,34.70
2022-07-29T01:15:49.157Z,36.60
2022-07-29T01:18:24.629Z,45.00
2022-07-29T01:20:54.130Z,48.80
2022-07-29T01:23:20.805Z,52.30
2022-07-29T01:26:06.052Z,65.70
2022-07-29T01:28:51.420Z,72.30
2022-07-29T01:31:26.639Z,84.10
2022-07-29T01:33:58.544Z,93.10
2022-07-29T01:36:30.947Z,99.40
2022-07-29T01:39:03.428Z,99.90
2022-07-29T01:41:32.484Z,99.90
2022-07-29T01:44:02.330Z,99.90
2022-07-29T01:46:34.326Z,99.90
2022-07-29T01:49:04.834Z,99.90
2022-07-29T01:51:34.022Z,99.90
2022-07-29T01:54:07.119Z,99.90
2022-07-29T01:56:34.759Z,99.90
2022-07-29T01:59:03.985Z,99.90
2022-07-29T02:01:32.239Z,99.90
2022-07-29T02:04:00.199Z,99.90
2022-07-29T02:06:28.217Z,99.90
2022-07-29T02:08:55.952Z,99.90
2022-07-29T02:11:22.651Z,99.90
2022-07-29T02:13:50.242Z,99.90
2022-07-29T02:16:17.506Z,99.90
2022-07-29T02:18:46.607Z,99.90
2022-07-29T02:21:15.572Z,99.90
2022-07-29T02:23:51.003Z,99.90
2022-07-29T02:26:20.047Z,99.90
2022-07-29T02:28:47.065Z,99.90
2022-07-29T02:31:14.661Z,99.90
2022-07-29T02:33:41.825Z,99.90
2022-07-29T02:36:08.810Z,99.90
2022-07-29T02:38:52.013Z,99.90
2022-07-29T02:41:21.208Z,99.90
2022-07-29T02:43:49.642Z,99.90
2022-07-29T02:46:28.504Z,99.90
2022-07-29T02:48:59.170Z,99.90
2022-07-29T02:51:43.408Z,99.90
2022-07-29T02:54:11.715Z,99.90
2022-07-29T02:56:39.201Z,99.90
2022-07-29T02:59:09.275Z,99.90
2022-07-29T03:01:36.213Z,99.90
2022-07-29T03:04:05.391Z,99.90
2022-07-29T03:06:38.279Z,99.90
2022-07-29T03:09:12.608Z,99.90
2022-07-29T03:11:48.015Z,99.90
2022-07-29T03:14:18.947Z,99.90
2022-07-29T03:16:46.139Z,99.90
2022-07-29T03:19:12.989Z,99.90
2022-07-29T03:21:39.901Z,99.90
2022-07-29T03:24:10.518Z,99.90
2022-07-29T03:26:37.907Z,99.90
2022-07-29T03:29:04.597Z,99.90
2022-07-29T03:31:32.113Z,99.90
2022-07-29T03:34:00.534Z,99.90
2022-07-29T03:36:27.279Z,99.90
2022-07-29T03:38:54.380Z,99.90
2022-07-29T03:41:23.670Z,99.90
2022-07-29T03:43:50.712Z,99.90
2022-07-29T03:46:18.426Z,99.90
2022-07-29T03:48:49.671Z,99.90
2022-07-29T03:51:16.422Z,99.90
2022-07-29T03:53:43.220Z,99.90
2022-07-29T03:56:10.981Z,99.90
2022-07-29T03:58:38.636Z,99.90
2022-07-29T04:01:05.463Z,99.90
2022-07-29T04:03:32.271Z,99.90
2022-07-29T04:05:59.731Z,99.90
2022-07-29T04:08:26.520Z,99.90
2022-07-29T04:10:53.526Z,99.90
2022-07-29T04:13:20.967Z,99.90
2022-07-29T04:15:48.161Z,99.90
2022-07-29T04:18:14.862Z,99.90
2022-07-29T04:20:41.586Z,99.90
2022-07-29T04:23:08.273Z,99.90
2022-07-29T04:25:37.872Z,99.90
2022-07-29T04:28:04.847Z,99.90
2022-07-29T04:30:32.185Z,99.90
2022-07-29T04:32:59.236Z,99.90
2022-07-29T04:35:26.165Z,99.90
2022-07-29T04:37:52.885Z,99.90
2022-07-29T04:40:19.651Z,99.90
2022-07-29T04:42:47.319Z,99.90
2022-07-29T04:45:14.795Z,99.90
2022-07-29T04:47:41.886Z,99.90
2022-07-29T04:50:09.276Z,99.90
2022-07-29T04:52:36.281Z,99.90
2022-07-29T04:55:04.134Z,99.90
2022-07-29T04:57:30.969Z,94.50
2022-07-29T04:59:57.781Z,75.70
2022-07-29T05:02:24.644Z,35.60
2022-07-29T05:04:51.511Z,15.20
2022-07-29T05:07:18.323Z,4.10
2022-07-29T05:09:45.272Z,1.00
2022-07-29T05:12:12.906Z,1.00
2022-07-29T05:14:39.693Z,1.00
2022-07-29T05:17:06.888Z,1.00
2022-07-29T05:19:33.626Z,1.00
2022-07-29T05:22:06.512Z,1.00
2022-07-29T05:24:33.210Z,1.00
2022-07-29T05:26:59.979Z,99.90
2022-07-29T05:29:42.862Z,99.90
2022-07-29T05:32:11.805Z,99.90
2022-07-29T05:34:38.476Z,99.90
2022-07-29T05:37:21.732Z,99.90
2022-07-29T05:39:56.217Z,99.90
2022-07-29T05:42:23.894Z,99.90
2022-07-29T05:44:50.570Z,99.90
2022-07-29T05:47:17.291Z,99.90
2022-07-29T05:49:44.329Z,99.90
2022-07-29T05:52:11.016Z,99.90
2022-07-29T05:54:37.723Z,99.90
2022-07-29T05:57:04.661Z,99.90
2022-07-29T05:59:31.330Z,99.90
2022-07-29T06:01:58.684Z,99.90
2022-07-29T06:04:25.819Z,99.90
2022-07-29T06:06:52.571Z,99.90
2022-07-29T06:09:19.325Z,99.90
2022-07-29T06:11:45.972Z,99.90
2022-07-29T06:14:12.670Z,99.90
2022-07-29T06:16:39.525Z,99.90
2022-07-29T06:19:06.463Z,99.90
2022-07-29T06:21:33.131Z,99.90
2022-07-29T06:24:00.020Z,99.90
2022-07-29T06:26:30.622Z,99.90
2022-07-29T06:28:58.694Z,99.90
2022-07-29T06:31:25.532Z,99.90
2022-07-29T06:33:54.586Z,99.90
2022-07-29T06:36:22.198Z,99.90
2022-07-29T06:38:52.010Z,99.90
2022-07-29T06:41:19.038Z,99.90
2022-07-29T06:43:51.809Z,99.90
2022-07-29T06:46:22.478Z,99.90
2022-07-29T06:48:49.662Z,99.90
2022-07-29T06:51:22.918Z,99.90
2022-07-29T06:53:59.631Z,99.90
2022-07-29T06:56:39.269Z,99.90
2022-07-29T06:59:10.133Z,99.90
2022-07-29T07:01:41.493Z,99.90
2022-07-29T07:04:09.842Z,99.90
2022-07-29T07:06:37.241Z,99.90
2022-07-29T07:09:04.462Z,79.70
2022-07-29T07:11:31.564Z,62.70
2022-07-29T07:14:03.124Z,42.90
2022-07-29T07:16:31.866Z,24.70
2022-07-29T07:18:58.709Z,1.00
2022-07-29T07:21:25.366Z,1.00
2022-07-29T07:23:52.000Z,1.00
2022-07-29T07:26:18.770Z,1.00
2022-07-29T07:28:45.503Z,1.00
2022-07-29T07:31:12.454Z,99.90
2022-07-29T07:33:39.199Z,99.90
2022-07-29T07:36:06.048Z,99.90
2022-07-29T07:38:32.781Z,99.90
2022-07-29T07:40:59.728Z,99.90
2022-07-29T07:43:26.373Z,99.90
2022-07-29T07:45:53.190Z,99.90
2022-07-29T07:48:19.972Z,99.90
2022-07-29T07:50:47.027Z,99.90
2022-07-29T07:53:13.991Z,99.90
2022-07-29T07:56:07.976Z,99.90
2022-07-29T07:58:28.287Z,99.90
2022-07-29T08:00:54.998Z,99.90
2022-07-29T08:03:21.669Z,99.90
2022-07-29T08:05:49.131Z,99.90
2022-07-29T08:08:15.883Z,99.90
2022-07-29T08:10:54.768Z,99.90
2022-07-29T08:13:22.518Z,99.90
2022-07-29T08:15:58.371Z,99.90
2022-07-29T08:18:25.950Z,99.90
2022-07-29T08:20:52.642Z,99.90
2022-07-29T08:23:22.369Z,99.90
2022-07-29T08:25:50.103Z,99.90
2022-07-29T08:28:18.108Z,99.90
2022-07-29T08:30:45.332Z,99.90
2022-07-29T08:33:13.306Z,99.90
2022-07-29T08:35:40.423Z,99.90
2022-07-29T08:38:07.145Z,99.90
2022-07-29T08:40:33.854Z,99.90
2022-07-29T08:43:06.699Z,99.90
2022-07-29T08:45:50.021Z,99.90
2022-07-29T08:48:18.325Z,99.90
2022-07-29T08:50:46.572Z,99.90
2022-07-29T08:53:17.656Z,99.90
2022-07-29T08:55:45.671Z,99.90
2022-07-29T08:58:12.787Z,99.90
2022-07-29T09:00:53.124Z,99.90
2022-07-29T09:03:23.955Z,99.90
2022-07-29T09:05:51.011Z,99.90
2022-07-29T09:08:18.399Z,99.90
2022-07-29T09:10:45.662Z,99.90
2022-07-29T09:13:12.335Z,99.90
2022-07-29T09:15:39.130Z,99.90
2022-07-29T09:18:05.788Z,99.90
2022-07-29T09:20:51.094Z,99.90
2022-07-29T09:23:23.455Z,99.90
2022-07-29T09:25:51.092Z,99.90
2022-07-29T09:28:18.602Z,99.90
2022-07-29T09:30:55.591Z,99.90
2022-07-29T09:33:23.039Z,99.90
2022-07-29T09:36:01.815Z,99.90
2022-07-29T09:38:29.342Z,99.90
2022-07-29T09:41:05.439Z,99.90
2022-07-29T09:43:33.365Z,99.90
2022-07-29T09:46:12.985Z,99.90
2022-07-29T09:48:40.162Z,99.90
2022-07-29T09:51:20.624Z,99.90
2022-07-29T09:53:49.027Z,99.90
2022-07-29T09:56:15.833Z,99.90
2022-07-29T09:58:42.530Z,99.90
2022-07-29T10:01:09.309Z,99.90
2022-07-29T10:03:51.622Z,99.90
2022-07-29T10:06:18.413Z,99.90
2022-07-29T10:08:45.185Z,99.90
2022-07-29T10:11:12.246Z,99.90
2022-07-29T10:13:39.170Z,99.90
2022-07-29T10:16:06.808Z,99.90
2022-07-29T10:18:34.165Z,99.90
2022-07-29T10:21:02.161Z,99.90
2022-07-29T10:23:46.902Z,99.90
2022-07-29T10:26:16.646Z,99.90
2022-07-29T10:28:43.518Z,99.90
2022-07-29T10:31:14.344Z,99.90
2022-07-29T10:34:03.173Z,99.90
2022-07-29T10:36:32.974Z,99.90
2022-07-29T10:39:06.440Z,99.90
2022-07-29T10:41:52.726Z,99.90
2022-07-29T10:44:23.118Z,99.90
2022-07-29T10:46:51.531Z,99.90
2022-07-29T10:49:18.352Z,99.90
2022-07-29T10:51:57.816Z,99.90
2022-07-29T10:54:34.147Z,99.90
2022-07-29T10:57:14.106Z,99.90
2022-07-29T10:59:42.216Z,99.90
2022-07-29T11:02:41.481Z,99.90
2022-07-29T11:05:10.567Z,99.90
2022-07-29T11:07:45.668Z,1.00
2022-07-29T11:10:16.427Z,14.10
2022-07-29T11:12:43.358Z,99.90
2022-07-29T11:15:36.278Z,99.90
2022-07-29T11:18:05.654Z,99.90
2022-07-29T11:20:43.768Z,99.90
2022-07-29T11:23:34.019Z,99.90
2022-07-29T11:26:10.846Z,99.90
2022-07-29T11:28:59.845Z,99.90
2022-07-29T11:31:46.852Z,99.90
2022-07-29T11:34:28.039Z,99.90
2022-07-29T11:37:14.981Z,99.90
2022-07-29T11:42:34.349Z,99.90
2022-07-29T11:45:43.289Z,99.90
2022-07-29T11:48:29.608Z,99.90
2022-07-29T11:50:48.509Z,99.90
2022-07-29T11:53:16.266Z,99.90
2022-07-29T11:55:51.541Z,99.90
2022-07-29T11:58:25.058Z,99.90
2022-07-29T12:00:53.231Z,99.90
2022-07-29T12:03:32.749Z,99.90
2022-07-29T12:06:02.349Z,99.90
2022-07-29T12:08:29.076Z,99.90
2022-07-29T12:10:55.932Z,99.90
2022-07-29T12:13:23.033Z,99.90
2022-07-29T12:16:04.819Z,99.90
2022-07-29T12:18:32.550Z,99.90
2022-07-29T12:21:05.540Z,99.90
2022-07-29T12:23:35.713Z,99.90
2022-07-29T12:26:11.102Z,99.90
2022-07-29T12:28:52.086Z,99.90
2022-07-29T12:31:43.828Z,99.90
2022-07-29T12:34:08.390Z,99.90
2022-07-29T12:36:37.284Z,99.90
2022-07-29T12:39:04.844Z,99.90
2022-07-29T12:41:31.827Z,99.90
2022-07-29T12:43:59.064Z,99.90
2022-07-29T12:46:25.916Z,99.90
2022-07-29T12:48:57.521Z,99.90
2022-07-29T12:51:33.778Z,99.90
2022-07-29T12:54:18.438Z,99.90
2022-07-29T12:56:45.771Z,99.90
2022-07-29T12:59:23.389Z,99.90
2022-07-29T13:01:51.206Z,99.90
2022-07-29T13:04:31.261Z,99.90
2022-07-29T13:07:06.929Z,99.90
2022-07-29T13:09:41.207Z,99.90
2022-07-29T13:12:12.180Z,99.90
2022-07-29T13:14:40.534Z,99.90
2022-07-29T13:17:08.897Z,99.90
2022-07-29T13:19:41.517Z,99.90
2022-07-29T13:22:09.125Z,99.90
2022-07-29T13:24:46.021Z,99.90
2022-07-29T13:27:12.790Z,99.90
2022-07-29T13:29:41.078Z,99.90
2022-07-29T13:32:08.614Z,99.90
2022-07-29T13:34:35.326Z,99.90
2022-07-29T13:37:02.008Z,99.90
2022-07-29T13:39:28.892Z,99.90
2022-07-29T13:41:56.491Z,99.90
2022-07-29T13:44:24.325Z,99.90
2022-07-29T13:46:51.207Z,99.90
2022-07-29T13:49:18.246Z,99.90
2022-07-29T13:51:45.056Z,99.90
2022-07-29T13:54:11.788Z,99.90
2022-07-29T13:56:38.546Z,99.90
2022-07-29T13:59:05.411Z,99.90
2022-07-29T14:01:32.196Z,99.90
2022-07-29T14:03:59.004Z,99.90
2022-07-29T14:06:25.777Z,99.90
2022-07-29T14:08:52.537Z,99.90
2022-07-29T14:11:19.250Z,99.90
2022-07-29T14:13:45.919Z,99.90
2022-07-29T14:16:12.881Z,99.90
2022-07-29T14:18:39.581Z,99.90
2022-07-29T14:21:07.693Z,99.90
2022-07-29T14:23:34.462Z,99.90
2022-07-29T14:26:01.230Z,99.90
2022-07-29T14:28:29.218Z,99.90
2022-07-29T14:30:58.748Z,99.90
2022-07-29T14:33:25.680Z,99.90
2022-07-29T14:35:52.343Z,99.90
2022-07-29T14:38:19.066Z,99.90
2022-07-29T14:40:47.536Z,99.90
2022-07-29T14:43:17.652Z,99.90
2022-07-29T14:45:44.441Z,99.90
2022-07-29T14:48:12.407Z,99.90
2022-07-29T14:50:39.142Z,99.90
2022-07-29T14:53:05.973Z,99.90
2022-07-29T14:55:32.645Z,99.90
2022-07-29T14:58:08.721Z,99.90
2022-07-29T15:00:38.594Z,99.90
2022-07-29T15:03:05.647Z,99.90
2022-07-29T15:05:32.644Z,99.90
2022-07-29T15:07:59.842Z,99.90
2022-07-29T15:10:29.795Z,99.90
2022-07-29T15:12:59.332Z,99.90
2022-07-29T15:15:26.576Z,99.90
2022-07-29T15:17:53.549Z,99.90
2022-07-29T15:20:20.570Z,99.90
2022-07-29T15:22:47.225Z,99.90
2022-07-29T15:25:13.868Z,99.90
2022-07-29T15:27:40.591Z,99.90
2022-07-29T15:30:11.572Z,99.90
2022-07-29T15:32:58.355Z,99.90
2022-07-29T15:35:25.458Z,99.90
2022-07-29T15:37:52.157Z,99.90
2022-07-29T15:40:18.882Z,14.70
2022-07-29T15:42:45.524Z,1.00
2022-07-29T15:45:12.219Z,1.00
2022-07-29T15:47:38.900Z,1.00
2022-07-29T15:50:07.355Z,1.00
2022-07-29T15:52:34.099Z,99.90
2022-07-29T15:55:00.745Z,99.90
2022-07-29T15:57:27.366Z,99.90
2022-07-29T15:59:54.094Z,99.90
2022-07-29T16:02:20.851Z,99.90
2022-07-29T16:04:47.622Z,99.90
2022-07-29T16:07:14.456Z,99.90
2022-07-29T16:09:41.732Z,99.90
2022-07-29T16:12:14.597Z,99.90
2022-07-29T16:14:45.076Z,99.90
2022-07-29T16:17:14.813Z,99.90
2022-07-29T16:19:45.480Z,99.90
2022-07-29T16:22:12.538Z,99.90
2022-07-29T16:24:39.336Z,99.90
2022-07-29T16:27:06.136Z,99.90
2022-07-29T16:29:32.800Z,99.90
2022-07-29T16:32:00.972Z,99.90
2022-07-29T16:34:27.864Z,99.90
2022-07-29T16:36:54.559Z,99.90
2022-07-29T16:39:21.284Z,99.90
2022-07-29T16:41:48.092Z,99.90
2022-07-29T16:44:15.907Z,99.90
2022-07-29T16:46:45.643Z,99.90
2022-07-29T16:49:12.692Z,99.90
2022-07-29T16:51:45.763Z,99.90
2022-07-29T16:54:12.410Z,99.90
2022-07-29T16:56:39.234Z,99.90
2022-07-29T16:59:05.959Z,99.90
2022-07-29T17:01:32.739Z,99.90
2022-07-29T17:04:08.585Z,99.90
2022-07-29T17:06:35.943Z,99.90
2022-07-29T17:09:04.012Z,99.90
2022-07-29T17:11:53.898Z,99.90
2022-07-29T17:14:18.048Z,99.90
2022-07-29T17:16:58.945Z,99.90
2022-07-29T17:19:30.914Z,86.80
2022-07-29T17:22:06.341Z,59.60
2022-07-29T17:24:37.266Z,53.40
2022-07-29T17:27:05.184Z,54.40
2022-07-29T17:29:31.895Z,50.30
2022-07-29T17:31:59.577Z,54.90
2022-07-29T17:34:27.150Z,60.20
2022-07-29T17:36:54.066Z,75.20
2022-07-29T17:39:20.714Z,91.10
2022-07-29T17:41:48.607Z,99.90
2022-07-29T17:44:15.347Z,99.90
2022-07-29T17:46:42.093Z,99.90
2022-07-29T17:49:09.026Z,99.90
2022-07-29T17:51:35.991Z,99.90
2022-07-29T17:54:02.877Z,99.90
2022-07-29T17:56:29.574Z,99.90
2022-07-29T17:58:57.255Z,99.90
2022-07-29T18:01:24.262Z,99.90
2022-07-29T18:03:51.042Z,99.90
2022-07-29T18:06:18.026Z,99.90
2022-07-29T18:08:47.543Z,99.90
2022-07-29T18:11:15.089Z,99.90
2022-07-29T18:13:41.962Z,99.90
2022-07-29T18:16:11.453Z,99.90
2022-07-29T18:18:38.286Z,99.90
2022-07-29T18:21:04.978Z,1.00
2022-07-29T18:23:31.860Z,99.90
2022-07-29T18:25:58.651Z,99.90
2022-07-29T18:28:26.608Z,99.90
2022-07-29T18:30:53.399Z,99.90
2022-07-29T18:33:22.162Z,99.90
2022-07-29T18:35:50.778Z,99.90
2022-07-29T18:38:23.933Z,99.90
2022-07-29T18:40:50.829Z,99.90
2022-07-29T18:43:17.476Z,99.90
2022-07-29T18:45:44.143Z,99.90
2022-07-29T18:48:13.313Z,99.90
2022-07-29T18:50:41.243Z,99.90
2022-07-29T18:53:07.941Z,99.90
2022-07-29T18:55:36.479Z,99.90
2022-07-29T18:58:05.783Z,99.90
2022-07-29T19:00:32.550Z,99.90
2022-07-29T19:02:59.544Z,99.90
2022-07-29T19:05:26.579Z,99.90
2022-07-29T19:07:54.929Z,99.90
2022-07-29T19:10:21.955Z,99.90
2022-07-29T19:12:49.309Z,99.90
2022-07-29T19:15:19.916Z,99.90
2022-07-29T19:17:48.117Z,99.90
2022-07-29T19:20:15.592Z,99.90
2022-07-29T19:22:42.636Z,99.90
2022-07-29T19:25:10.103Z,99.90
2022-07-29T19:35:20.054Z,99.90
2022-07-29T19:37:58.224Z,99.90
2022-07-29T19:40:30.758Z,99.90
2022-07-29T19:42:58.348Z,99.90
2022-07-29T19:45:26.114Z,99.90
2022-07-29T19:47:57.669Z,99.90
2022-07-29T19:50:30.210Z,99.90
2022-07-29T19:53:02.014Z,99.90
2022-07-29T19:55:28.944Z,99.90
2022-07-29T19:57:56.010Z,99.90
2022-07-29T20:00:23.917Z,99.90
2022-07-29T20:02:51.746Z,99.90
2022-07-29T20:05:18.662Z,99.90
2022-07-29T20:07:46.966Z,99.90
2022-07-29T20:10:13.691Z,99.90
2022-07-29T20:12:42.717Z,99.90
2022-07-29T20:15:16.548Z,99.90
2022-07-29T20:17:43.512Z,99.90
2022-07-29T20:20:10.867Z,99.90
2022-07-29T20:22:37.749Z,99.90
2022-07-29T20:25:05.854Z,99.90
2022-07-29T20:27:32.627Z,99.90
2022-07-29T20:29:59.387Z,99.90
2022-07-29T20:32:26.545Z,99.90
2022-07-29T20:34:53.675Z,99.90
2022-07-29T20:37:20.645Z,99.90
2022-07-29T20:39:47.949Z,99.90
2022-07-29T20:42:15.196Z,99.90
2022-07-29T20:44:41.989Z,99.90
2022-07-29T20:47:09.174Z,99.90
2022-07-29T20:49:36.598Z,99.90
2022-07-29T20:52:03.982Z,99.90
2022-07-29T20:54:30.820Z,99.90
2022-07-29T20:57:00.324Z,99.90
2022-07-29T20:59:27.285Z,99.90
2022-07-29T21:01:55.639Z,99.90
2022-07-29T21:04:22.406Z,99.90
2022-07-29T21:06:57.732Z,99.90
2022-07-29T21:09:24.917Z,99.90
2022-07-29T21:11:51.645Z,99.90
2022-07-29T21:14:47.410Z,99.90
2022-07-29T21:17:14.967Z,99.90
2022-07-29T21:19:41.766Z,99.90
2022-07-29T21:22:08.524Z,99.90
2022-07-29T21:24:35.169Z,99.90
2022-07-29T21:27:33.987Z,99.90
2022-07-29T21:30:00.700Z,99.90
2022-07-29T21:32:29.857Z,99.90
2022-07-29T21:34:57.253Z,99.90
2022-07-29T21:37:23.944Z,99.90
2022-07-29T21:39:50.641Z,99.90
2022-07-29T21:42:17.326Z,99.90
2022-07-29T21:44:44.158Z,99.90
2022-07-29T21:47:11.856Z,99.90
2022-07-29T21:49:38.863Z,99.90
2022-07-29T21:52:05.807Z,99.90
2022-07-29T21:54:34.735Z,99.90
2022-07-29T21:57:01.482Z,99.90
2022-07-29T21:59:28.241Z,99.90
2022-07-29T22:01:55.016Z,99.90
2022-07-29T22:04:21.841Z,99.90
2022-07-29T22:06:48.579Z,99.90
2022-07-29T22:09:15.293Z,99.90
2022-07-29T22:11:42.475Z,99.90
2022-07-29T22:14:09.278Z,99.90
2022-07-29T22:16:36.033Z,99.90
2022-07-29T22:19:03.958Z,99.90
2022-07-29T22:21:30.737Z,99.90
2022-07-29T22:23:57.532Z,99.90
2022-07-29T22:26:24.484Z,99.90
2022-07-29T22:28:51.152Z,99.90
2022-07-29T22:31:17.884Z,99.90
2022-07-29T22:33:44.665Z,99.90
2022-07-29T22:36:11.428Z,99.90
2022-07-29T22:38:38.303Z,99.90
2022-07-29T22:41:05.094Z,99.90
2022-07-29T22:43:31.993Z,99.90
2022-07-29T22:45:58.684Z,99.90
2022-07-29T22:48:25.475Z,99.90
2022-07-29T22:50:52.135Z,99.90
2022-07-29T22:53:18.853Z,99.90
2022-07-29T22:55:45.881Z,99.90
2022-07-29T22:58:12.641Z,99.90
2022-07-29T23:00:39.371Z,99.90
2022-07-29T23:03:06.728Z,99.90
2022-07-29T23:05:33.494Z,99.90
2022-07-29T23:08:00.299Z,99.90
2022-07-29T23:10:27.041Z,99.90
2022-07-29T23:12:53.713Z,99.90
2022-07-29T23:15:20.448Z,99.90
2022-07-29T23:17:47.389Z,99.90
2022-07-29T23:20:15.009Z,99.90
2022-07-29T23:22:42.093Z,99.90
2022-07-29T23:25:09.330Z,99.90
2022-07-29T23:27:36.520Z,99.90
2022-07-29T23:30:03.760Z,99.90
2022-07-29T23:32:30.609Z,99.90
2022-07-29T23:34:57.257Z,99.90
2022-07-29T23:37:23.939Z,99.90
2022-07-29T23:39:53.657Z,99.90
2022-07-29T23:42:20.431Z,99.90
2022-07-29T23:44:47.091Z,99.90
2022-07-29T23:47:13.787Z,99.90
2022-07-29T23:49:40.466Z,99.90
2022-07-29T23:52:07.152Z,99.90
2022-07-29T23:54:33.848Z,99.90
2022-07-29T23:57:01.265Z,99.90
2022-07-29T23:59:28.223Z,99.90
